sensor_id;sensor_type;location;lat;lon;timestamp;P1;durP1;ratioP1;P2;durP2;ratioP2
69847;SDS011;57143;55.940;37.496;2023-09-19T00:00:26;12.07;;;5.50;;
69847;SDS011;57143;55.940;37.496;2023-09-19T00:02:53;14.18;;;6.05;;
69847;SDS011;57143;55.940;37.496;2023-09-19T00:05:25;15.20;;;6.63;;
69847;SDS011;57143;55.940;37.496;2023-09-19T00:07:54;14.00;;;6.60;;
69847;SDS011;57143;55.940;37.496;2023-09-19T00:10:24;13.55;;;6.30;;
69847;SDS011;57143;55.940;37.496;2023-09-19T00:12:53;14.43;;;7.10;;
69847;SDS011;57143;55.940;37.496;2023-09-19T00:15:23;13.27;;;6.28;;
69847;SDS011;57143;55.940;37.496;2023-09-19T00:17:51;14.03;;;6.10;;
69847;SDS011;57143;55.940;37.496;2023-09-19T00:20:19;12.30;;;5.70;;
69847;SDS011;57143;55.940;37.496;2023-09-19T00:22:48;12.68;;;5.82;;
69847;SDS011;57143;55.940;37.496;2023-09-19T00:25:17;15.18;;;5.90;;
69847;SDS011;57143;55.940;37.496;2023-09-19T00:27:45;13.95;;;6.35;;
69847;SDS011;57143;55.940;37.496;2023-09-19T00:30:13;12.70;;;5.67;;
69847;SDS011;57143;55.940;37.496;2023-09-19T00:32:47;13.68;;;6.10;;
69847;SDS011;57143;55.940;37.496;2023-09-19T00:35:14;14.18;;;5.80;;
69847;SDS011;57143;55.940;37.496;2023-09-19T00:37:42;13.13;;;5.65;;
69847;SDS011;57143;55.940;37.496;2023-09-19T00:40:10;12.98;;;5.47;;
69847;SDS011;57143;55.940;37.496;2023-09-19T00:42:38;12.30;;;4.83;;
69847;SDS011;57143;55.940;37.496;2023-09-19T00:45:06;11.15;;;5.07;;
69847;SDS011;57143;55.940;37.496;2023-09-19T00:47:36;12.27;;;4.38;;
69847;SDS011;57143;55.940;37.496;2023-09-19T00:50:08;11.60;;;5.07;;
69847;SDS011;57143;55.940;37.496;2023-09-19T00:52:39;11.07;;;4.95;;
69847;SDS011;57143;55.940;37.496;2023-09-19T00:55:09;10.10;;;4.73;;
69847;SDS011;57143;55.940;37.496;2023-09-19T00:57:39;12.73;;;5.00;;
69847;SDS011;57143;55.940;37.496;2023-09-19T01:00:07;11.32;;;4.70;;
69847;SDS011;57143;55.940;37.496;2023-09-19T01:02:40;13.55;;;5.97;;
69847;SDS011;57143;55.940;37.496;2023-09-19T01:05:10;10.02;;;4.38;;
69847;SDS011;57143;55.940;37.496;2023-09-19T01:07:38;11.43;;;4.50;;
69847;SDS011;57143;55.940;37.496;2023-09-19T01:10:06;11.38;;;4.38;;
69847;SDS011;57143;55.940;37.496;2023-09-19T01:12:39;11.07;;;4.88;;
69847;SDS011;57143;55.940;37.496;2023-09-19T01:15:16;10.88;;;4.85;;
69847;SDS011;57143;55.940;37.496;2023-09-19T01:17:53;10.25;;;4.78;;
69847;SDS011;57143;55.940;37.496;2023-09-19T01:20:29;10.93;;;4.93;;
69847;SDS011;57143;55.940;37.496;2023-09-19T01:23:11;10.93;;;5.13;;
69847;SDS011;57143;55.940;37.496;2023-09-19T01:31:31;10.55;;;5.10;;
69847;SDS011;57143;55.940;37.496;2023-09-19T01:34:02;11.70;;;5.40;;
69847;SDS011;57143;55.940;37.496;2023-09-19T01:36:32;12.45;;;5.93;;
69847;SDS011;57143;55.940;37.496;2023-09-19T01:39:03;10.98;;;5.47;;
69847;SDS011;57143;55.940;37.496;2023-09-19T01:44:31;11.93;;;5.78;;
69847;SDS011;57143;55.940;37.496;2023-09-19T01:47:09;11.77;;;5.73;;
69847;SDS011;57143;55.940;37.496;2023-09-19T01:49:44;14.15;;;6.18;;
69847;SDS011;57143;55.940;37.496;2023-09-19T01:52:22;13.18;;;5.70;;
69847;SDS011;57143;55.940;37.496;2023-09-19T01:54:55;13.52;;;5.72;;
69847;SDS011;57143;55.940;37.496;2023-09-19T01:57:32;13.52;;;5.70;;
69847;SDS011;57143;55.940;37.496;2023-09-19T02:00:09;15.73;;;7.10;;
69847;SDS011;57143;55.940;37.496;2023-09-19T02:02:42;14.13;;;6.47;;
69847;SDS011;57143;55.940;37.496;2023-09-19T02:05:11;13.63;;;6.82;;
69847;SDS011;57143;55.940;37.496;2023-09-19T02:07:39;15.68;;;6.68;;
69847;SDS011;57143;55.940;37.496;2023-09-19T02:10:06;14.32;;;6.18;;
69847;SDS011;57143;55.940;37.496;2023-09-19T02:12:36;14.30;;;6.83;;
69847;SDS011;57143;55.940;37.496;2023-09-19T02:15:05;15.27;;;6.88;;
69847;SDS011;57143;55.940;37.496;2023-09-19T02:17:34;12.20;;;6.22;;
69847;SDS011;57143;55.940;37.496;2023-09-19T02:20:03;13.48;;;6.55;;
69847;SDS011;57143;55.940;37.496;2023-09-19T02:22:36;11.90;;;5.43;;
69847;SDS011;57143;55.940;37.496;2023-09-19T02:25:24;13.40;;;6.63;;
69847;SDS011;57143;55.940;37.496;2023-09-19T02:27:52;13.60;;;7.07;;
69847;SDS011;57143;55.940;37.496;2023-09-19T02:30:19;14.02;;;6.78;;
69847;SDS011;57143;55.940;37.496;2023-09-19T02:32:50;13.88;;;6.93;;
69847;SDS011;57143;55.940;37.496;2023-09-19T02:35:19;13.23;;;6.57;;
69847;SDS011;57143;55.940;37.496;2023-09-19T02:37:46;14.73;;;6.77;;
69847;SDS011;57143;55.940;37.496;2023-09-19T02:40:13;14.27;;;6.60;;
69847;SDS011;57143;55.940;37.496;2023-09-19T02:42:45;16.02;;;6.80;;
69847;SDS011;57143;55.940;37.496;2023-09-19T02:45:16;15.98;;;7.47;;
69847;SDS011;57143;55.940;37.496;2023-09-19T02:47:44;15.23;;;7.63;;
69847;SDS011;57143;55.940;37.496;2023-09-19T02:50:12;14.73;;;7.70;;
69847;SDS011;57143;55.940;37.496;2023-09-19T02:52:42;17.40;;;7.47;;
69847;SDS011;57143;55.940;37.496;2023-09-19T02:55:10;14.65;;;6.85;;
69847;SDS011;57143;55.940;37.496;2023-09-19T02:57:40;13.32;;;6.88;;
69847;SDS011;57143;55.940;37.496;2023-09-19T03:00:12;15.50;;;7.50;;
69847;SDS011;57143;55.940;37.496;2023-09-19T03:02:39;15.67;;;7.07;;
69847;SDS011;57143;55.940;37.496;2023-09-19T03:05:07;15.93;;;7.60;;
69847;SDS011;57143;55.940;37.496;2023-09-19T03:07:36;15.40;;;7.78;;
69847;SDS011;57143;55.940;37.496;2023-09-19T03:10:06;17.40;;;6.40;;
69847;SDS011;57143;55.940;37.496;2023-09-19T03:12:34;13.35;;;6.68;;
69847;SDS011;57143;55.940;37.496;2023-09-19T03:15:02;14.73;;;7.13;;
69847;SDS011;57143;55.940;37.496;2023-09-19T03:17:31;12.88;;;6.22;;
69847;SDS011;57143;55.940;37.496;2023-09-19T03:19:59;15.77;;;6.90;;
69847;SDS011;57143;55.940;37.496;2023-09-19T03:22:26;14.60;;;7.25;;
69847;SDS011;57143;55.940;37.496;2023-09-19T03:24:54;13.95;;;6.38;;
69847;SDS011;57143;55.940;37.496;2023-09-19T03:27:23;13.93;;;6.63;;
69847;SDS011;57143;55.940;37.496;2023-09-19T03:29:50;15.50;;;6.85;;
69847;SDS011;57143;55.940;37.496;2023-09-19T03:32:17;13.75;;;6.78;;
69847;SDS011;57143;55.940;37.496;2023-09-19T03:34:44;12.15;;;6.00;;
69847;SDS011;57143;55.940;37.496;2023-09-19T03:37:13;12.30;;;6.03;;
69847;SDS011;57143;55.940;37.496;2023-09-19T03:39:41;13.47;;;6.40;;
69847;SDS011;57143;55.940;37.496;2023-09-19T03:42:08;11.43;;;5.57;;
69847;SDS011;57143;55.940;37.496;2023-09-19T03:44:37;12.82;;;6.03;;
69847;SDS011;57143;55.940;37.496;2023-09-19T03:47:04;12.68;;;6.15;;
69847;SDS011;57143;55.940;37.496;2023-09-19T03:49:32;14.60;;;5.68;;
69847;SDS011;57143;55.940;37.496;2023-09-19T03:51:59;13.80;;;5.97;;
69847;SDS011;57143;55.940;37.496;2023-09-19T03:54:26;12.00;;;5.88;;
69847;SDS011;57143;55.940;37.496;2023-09-19T03:56:54;12.48;;;5.85;;
69847;SDS011;57143;55.940;37.496;2023-09-19T03:59:21;11.68;;;6.18;;
69847;SDS011;57143;55.940;37.496;2023-09-19T04:01:50;13.25;;;6.25;;
69847;SDS011;57143;55.940;37.496;2023-09-19T04:04:21;13.83;;;6.23;;
69847;SDS011;57143;55.940;37.496;2023-09-19T04:06:50;13.98;;;5.15;;
69847;SDS011;57143;55.940;37.496;2023-09-19T04:09:17;12.82;;;5.47;;
69847;SDS011;57143;55.940;37.496;2023-09-19T04:11:44;14.85;;;5.75;;
69847;SDS011;57143;55.940;37.496;2023-09-19T04:14:12;14.75;;;5.63;;
69847;SDS011;57143;55.940;37.496;2023-09-19T04:16:39;11.83;;;5.97;;
69847;SDS011;57143;55.940;37.496;2023-09-19T04:19:08;12.30;;;5.50;;
69847;SDS011;57143;55.940;37.496;2023-09-19T04:21:35;10.02;;;4.95;;
69847;SDS011;57143;55.940;37.496;2023-09-19T04:24:02;11.63;;;5.50;;
69847;SDS011;57143;55.940;37.496;2023-09-19T04:26:30;12.05;;;5.90;;
69847;SDS011;57143;55.940;37.496;2023-09-19T04:28:58;13.03;;;5.57;;
69847;SDS011;57143;55.940;37.496;2023-09-19T04:31:26;10.77;;;5.50;;
69847;SDS011;57143;55.940;37.496;2023-09-19T04:33:54;10.57;;;5.20;;
69847;SDS011;57143;55.940;37.496;2023-09-19T04:36:23;14.07;;;5.72;;
69847;SDS011;57143;55.940;37.496;2023-09-19T04:38:51;16.95;;;7.68;;
69847;SDS011;57143;55.940;37.496;2023-09-19T04:41:19;11.17;;;5.43;;
69847;SDS011;57143;55.940;37.496;2023-09-19T04:43:47;12.15;;;5.50;;
69847;SDS011;57143;55.940;37.496;2023-09-19T04:46:16;13.70;;;6.43;;
69847;SDS011;57143;55.940;37.496;2023-09-19T04:48:43;12.82;;;5.82;;
69847;SDS011;57143;55.940;37.496;2023-09-19T04:51:10;11.55;;;5.80;;
69847;SDS011;57143;55.940;37.496;2023-09-19T04:53:40;12.30;;;5.87;;
69847;SDS011;57143;55.940;37.496;2023-09-19T04:56:09;16.77;;;6.25;;
69847;SDS011;57143;55.940;37.496;2023-09-19T04:58:36;11.98;;;5.80;;
69847;SDS011;57143;55.940;37.496;2023-09-19T05:01:03;12.05;;;6.13;;
69847;SDS011;57143;55.940;37.496;2023-09-19T05:03:31;13.43;;;6.55;;
69847;SDS011;57143;55.940;37.496;2023-09-19T05:05:58;14.70;;;6.13;;
69847;SDS011;57143;55.940;37.496;2023-09-19T05:08:25;11.80;;;5.70;;
69847;SDS011;57143;55.940;37.496;2023-09-19T05:10:54;13.95;;;6.13;;
69847;SDS011;57143;55.940;37.496;2023-09-19T05:13:22;12.52;;;5.72;;
69847;SDS011;57143;55.940;37.496;2023-09-19T05:15:49;11.32;;;6.00;;
69847;SDS011;57143;55.940;37.496;2023-09-19T05:18:16;12.77;;;6.27;;
69847;SDS011;57143;55.940;37.496;2023-09-19T05:20:44;14.32;;;6.63;;
69847;SDS011;57143;55.940;37.496;2023-09-19T05:23:11;15.57;;;6.85;;
69847;SDS011;57143;55.940;37.496;2023-09-19T05:25:39;14.95;;;6.78;;
69847;SDS011;57143;55.940;37.496;2023-09-19T05:28:10;16.60;;;7.50;;
69847;SDS011;57143;55.940;37.496;2023-09-19T05:30:40;16.67;;;6.77;;
69847;SDS011;57143;55.940;37.496;2023-09-19T05:33:08;17.10;;;6.85;;
69847;SDS011;57143;55.940;37.496;2023-09-19T05:35:36;13.75;;;6.47;;
69847;SDS011;57143;55.940;37.496;2023-09-19T05:38:05;15.43;;;7.00;;
69847;SDS011;57143;55.940;37.496;2023-09-19T05:40:34;16.50;;;7.25;;
69847;SDS011;57143;55.940;37.496;2023-09-19T05:43:03;12.33;;;6.20;;
69847;SDS011;57143;55.940;37.496;2023-09-19T05:45:32;13.38;;;7.03;;
69847;SDS011;57143;55.940;37.496;2023-09-19T05:48:06;14.35;;;7.22;;
69847;SDS011;57143;55.940;37.496;2023-09-19T05:50:36;13.65;;;7.18;;
69847;SDS011;57143;55.940;37.496;2023-09-19T05:53:04;13.68;;;7.10;;
69847;SDS011;57143;55.940;37.496;2023-09-19T05:55:31;16.30;;;7.27;;
69847;SDS011;57143;55.940;37.496;2023-09-19T05:57:59;14.23;;;7.47;;
69847;SDS011;57143;55.940;37.496;2023-09-19T06:00:27;14.10;;;6.47;;
69847;SDS011;57143;55.940;37.496;2023-09-19T06:02:56;15.68;;;7.53;;
69847;SDS011;57143;55.940;37.496;2023-09-19T06:05:24;13.27;;;7.18;;
69847;SDS011;57143;55.940;37.496;2023-09-19T06:07:53;17.40;;;7.63;;
69847;SDS011;57143;55.940;37.496;2023-09-19T06:10:20;14.68;;;6.55;;
69847;SDS011;57143;55.940;37.496;2023-09-19T06:12:48;15.60;;;6.95;;
69847;SDS011;57143;55.940;37.496;2023-09-19T06:15:16;15.90;;;7.80;;
69847;SDS011;57143;55.940;37.496;2023-09-19T06:17:46;16.30;;;7.82;;
69847;SDS011;57143;55.940;37.496;2023-09-19T06:20:15;16.13;;;7.53;;
69847;SDS011;57143;55.940;37.496;2023-09-19T06:22:45;13.35;;;7.38;;
69847;SDS011;57143;55.940;37.496;2023-09-19T06:25:13;14.50;;;7.15;;
69847;SDS011;57143;55.940;37.496;2023-09-19T06:27:45;15.63;;;7.65;;
69847;SDS011;57143;55.940;37.496;2023-09-19T06:30:13;14.93;;;7.35;;
69847;SDS011;57143;55.940;37.496;2023-09-19T06:32:40;17.13;;;7.13;;
69847;SDS011;57143;55.940;37.496;2023-09-19T06:35:09;13.45;;;6.68;;
69847;SDS011;57143;55.940;37.496;2023-09-19T06:37:39;16.52;;;8.98;;
69847;SDS011;57143;55.940;37.496;2023-09-19T06:40:08;16.30;;;8.13;;
69847;SDS011;57143;55.940;37.496;2023-09-19T06:42:39;16.10;;;7.65;;
69847;SDS011;57143;55.940;37.496;2023-09-19T06:45:08;14.17;;;7.07;;
69847;SDS011;57143;55.940;37.496;2023-09-19T06:47:37;16.75;;;7.90;;
69847;SDS011;57143;55.940;37.496;2023-09-19T06:50:05;15.20;;;7.78;;
69847;SDS011;57143;55.940;37.496;2023-09-19T06:52:42;15.25;;;8.20;;
69847;SDS011;57143;55.940;37.496;2023-09-19T06:55:09;16.98;;;8.93;;
69847;SDS011;57143;55.940;37.496;2023-09-19T06:57:38;13.70;;;7.33;;
69847;SDS011;57143;55.940;37.496;2023-09-19T07:00:06;16.05;;;8.50;;
69847;SDS011;57143;55.940;37.496;2023-09-19T07:02:41;15.55;;;8.63;;
69847;SDS011;57143;55.940;37.496;2023-09-19T07:05:08;16.90;;;7.68;;
69847;SDS011;57143;55.940;37.496;2023-09-19T07:07:36;15.68;;;8.48;;
69847;SDS011;57143;55.940;37.496;2023-09-19T07:10:05;18.20;;;8.73;;
69847;SDS011;57143;55.940;37.496;2023-09-19T07:12:33;20.45;;;8.80;;
69847;SDS011;57143;55.940;37.496;2023-09-19T07:15:01;20.60;;;9.50;;
69847;SDS011;57143;55.940;37.496;2023-09-19T07:17:30;19.35;;;9.90;;
69847;SDS011;57143;55.940;37.496;2023-09-19T07:19:58;19.42;;;9.07;;
69847;SDS011;57143;55.940;37.496;2023-09-19T07:22:26;21.33;;;9.50;;
69847;SDS011;57143;55.940;37.496;2023-09-19T07:24:53;18.63;;;9.48;;
69847;SDS011;57143;55.940;37.496;2023-09-19T07:27:22;18.15;;;9.27;;
69847;SDS011;57143;55.940;37.496;2023-09-19T07:29:49;20.60;;;10.20;;
69847;SDS011;57143;55.940;37.496;2023-09-19T07:32:16;19.85;;;9.65;;
69847;SDS011;57143;55.940;37.496;2023-09-19T07:34:44;16.20;;;9.23;;
69847;SDS011;57143;55.940;37.496;2023-09-19T07:37:11;17.42;;;9.13;;
69847;SDS011;57143;55.940;37.496;2023-09-19T07:39:41;15.45;;;8.38;;
69847;SDS011;57143;55.940;37.496;2023-09-19T07:42:10;23.33;;;11.93;;
69847;SDS011;57143;55.940;37.496;2023-09-19T07:44:44;19.20;;;9.85;;
69847;SDS011;57143;55.940;37.496;2023-09-19T07:47:15;22.37;;;9.83;;
69847;SDS011;57143;55.940;37.496;2023-09-19T07:49:42;16.02;;;9.63;;
69847;SDS011;57143;55.940;37.496;2023-09-19T07:52:09;21.42;;;9.95;;
69847;SDS011;57143;55.940;37.496;2023-09-19T07:54:37;20.70;;;9.85;;
69847;SDS011;57143;55.940;37.496;2023-09-19T07:57:06;22.80;;;10.25;;
69847;SDS011;57143;55.940;37.496;2023-09-19T07:59:34;21.03;;;11.03;;
69847;SDS011;57143;55.940;37.496;2023-09-19T08:02:03;18.73;;;10.07;;
69847;SDS011;57143;55.940;37.496;2023-09-19T08:04:31;19.90;;;10.93;;
69847;SDS011;57143;55.940;37.496;2023-09-19T08:06:59;21.40;;;10.63;;
69847;SDS011;57143;55.940;37.496;2023-09-19T08:09:29;22.35;;;11.18;;
69847;SDS011;57143;55.940;37.496;2023-09-19T08:11:58;21.60;;;10.73;;
69847;SDS011;57143;55.940;37.496;2023-09-19T08:14:29;20.08;;;11.07;;
69847;SDS011;57143;55.940;37.496;2023-09-19T08:16:56;22.10;;;12.48;;
69847;SDS011;57143;55.940;37.496;2023-09-19T08:19:27;26.13;;;11.20;;
69847;SDS011;57143;55.940;37.496;2023-09-19T08:21:57;24.85;;;12.77;;
69847;SDS011;57143;55.940;37.496;2023-09-19T08:24:25;24.97;;;12.07;;
69847;SDS011;57143;55.940;37.496;2023-09-19T08:26:54;19.75;;;10.25;;
69847;SDS011;57143;55.940;37.496;2023-09-19T08:29:21;22.02;;;10.90;;
69847;SDS011;57143;55.940;37.496;2023-09-19T08:31:54;24.00;;;11.45;;
69847;SDS011;57143;55.940;37.496;2023-09-19T08:34:22;20.10;;;10.73;;
69847;SDS011;57143;55.940;37.496;2023-09-19T08:36:51;23.23;;;11.87;;
69847;SDS011;57143;55.940;37.496;2023-09-19T08:39:22;22.00;;;11.68;;
69847;SDS011;57143;55.940;37.496;2023-09-19T08:41:49;21.63;;;11.60;;
69847;SDS011;57143;55.940;37.496;2023-09-19T08:44:23;24.15;;;10.70;;
69847;SDS011;57143;55.940;37.496;2023-09-19T08:46:50;21.90;;;11.35;;
69847;SDS011;57143;55.940;37.496;2023-09-19T08:49:24;21.77;;;11.10;;
69847;SDS011;57143;55.940;37.496;2023-09-19T08:51:59;23.25;;;11.38;;
69847;SDS011;57143;55.940;37.496;2023-09-19T08:54:32;22.10;;;10.93;;
69847;SDS011;57143;55.940;37.496;2023-09-19T08:57:05;21.05;;;10.88;;
69847;SDS011;57143;55.940;37.496;2023-09-19T08:59:37;25.40;;;11.38;;
69847;SDS011;57143;55.940;37.496;2023-09-19T09:02:08;20.63;;;11.40;;
69847;SDS011;57143;55.940;37.496;2023-09-19T09:04:39;22.25;;;10.52;;
69847;SDS011;57143;55.940;37.496;2023-09-19T09:07:10;29.08;;;12.13;;
69847;SDS011;57143;55.940;37.496;2023-09-19T09:09:39;23.63;;;12.10;;
69847;SDS011;57143;55.940;37.496;2023-09-19T09:12:08;22.40;;;11.50;;
69847;SDS011;57143;55.940;37.496;2023-09-19T09:14:39;22.40;;;11.10;;
69847;SDS011;57143;55.940;37.496;2023-09-19T09:17:06;24.02;;;10.85;;
69847;SDS011;57143;55.940;37.496;2023-09-19T09:19:34;26.50;;;11.98;;
69847;SDS011;57143;55.940;37.496;2023-09-19T09:22:06;25.80;;;12.13;;
69847;SDS011;57143;55.940;37.496;2023-09-19T09:24:35;21.38;;;11.07;;
69847;SDS011;57143;55.940;37.496;2023-09-19T09:27:05;29.77;;;11.93;;
69847;SDS011;57143;55.940;37.496;2023-09-19T09:29:40;25.10;;;11.18;;
69847;SDS011;57143;55.940;37.496;2023-09-19T09:32:18;26.55;;;11.20;;
69847;SDS011;57143;55.940;37.496;2023-09-19T09:34:47;22.73;;;10.48;;
69847;SDS011;57143;55.940;37.496;2023-09-19T09:37:17;22.98;;;10.80;;
69847;SDS011;57143;55.940;37.496;2023-09-19T09:39:56;19.37;;;10.83;;
69847;SDS011;57143;55.940;37.496;2023-09-19T09:42:45;22.20;;;11.20;;
69847;SDS011;57143;55.940;37.496;2023-09-19T09:45:15;19.15;;;10.63;;
69847;SDS011;57143;55.940;37.496;2023-09-19T09:47:45;24.23;;;11.15;;
69847;SDS011;57143;55.940;37.496;2023-09-19T09:50:27;21.15;;;11.63;;
69847;SDS011;57143;55.940;37.496;2023-09-19T09:53:02;21.30;;;11.47;;
69847;SDS011;57143;55.940;37.496;2023-09-19T09:58:26;22.27;;;11.43;;
69847;SDS011;57143;55.940;37.496;2023-09-19T10:00:57;30.67;;;11.80;;
69847;SDS011;57143;55.940;37.496;2023-09-19T10:03:34;24.58;;;11.90;;
69847;SDS011;57143;55.940;37.496;2023-09-19T10:06:08;23.63;;;11.93;;
69847;SDS011;57143;55.940;37.496;2023-09-19T10:09:03;26.13;;;12.05;;
69847;SDS011;57143;55.940;37.496;2023-09-19T10:11:47;21.85;;;11.52;;
69847;SDS011;57143;55.940;37.496;2023-09-19T10:14:24;21.98;;;11.25;;
69847;SDS011;57143;55.940;37.496;2023-09-19T10:16:54;21.70;;;10.65;;
69847;SDS011;57143;55.940;37.496;2023-09-19T10:19:29;20.33;;;11.47;;
69847;SDS011;57143;55.940;37.496;2023-09-19T10:21:59;23.38;;;11.05;;
69847;SDS011;57143;55.940;37.496;2023-09-19T10:24:30;21.83;;;11.82;;
69847;SDS011;57143;55.940;37.496;2023-09-19T10:26:59;22.33;;;9.75;;
69847;SDS011;57143;55.940;37.496;2023-09-19T10:29:29;29.75;;;11.65;;
69847;SDS011;57143;55.940;37.496;2023-09-19T10:32:02;26.00;;;11.07;;
69847;SDS011;57143;55.940;37.496;2023-09-19T10:34:35;20.70;;;10.82;;
69847;SDS011;57143;55.940;37.496;2023-09-19T10:37:03;24.10;;;12.25;;
69847;SDS011;57143;55.940;37.496;2023-09-19T10:39:34;20.95;;;11.23;;
69847;SDS011;57143;55.940;37.496;2023-09-19T10:42:08;26.58;;;12.43;;
69847;SDS011;57143;55.940;37.496;2023-09-19T10:44:43;19.97;;;11.63;;
69847;SDS011;57143;55.940;37.496;2023-09-19T10:47:14;21.25;;;11.77;;
69847;SDS011;57143;55.940;37.496;2023-09-19T10:49:44;21.40;;;12.50;;
69847;SDS011;57143;55.940;37.496;2023-09-19T10:52:12;21.58;;;11.65;;
69847;SDS011;57143;55.940;37.496;2023-09-19T10:54:45;22.75;;;12.15;;
69847;SDS011;57143;55.940;37.496;2023-09-19T10:57:20;27.57;;;12.00;;
69847;SDS011;57143;55.940;37.496;2023-09-19T11:00:02;23.73;;;12.35;;
69847;SDS011;57143;55.940;37.496;2023-09-19T11:05:59;24.63;;;12.23;;
69847;SDS011;57143;55.940;37.496;2023-09-19T11:08:51;22.75;;;11.95;;
69847;SDS011;57143;55.940;37.496;2023-09-19T11:11:40;23.90;;;12.10;;
69847;SDS011;57143;55.940;37.496;2023-09-19T11:14:41;25.15;;;12.90;;
69847;SDS011;57143;55.940;37.496;2023-09-19T11:20:23;27.50;;;11.80;;
69847;SDS011;57143;55.940;37.496;2023-09-19T11:25:52;25.90;;;12.53;;
69847;SDS011;57143;55.940;37.496;2023-09-19T11:40:35;26.43;;;12.47;;
69847;SDS011;57143;55.940;37.496;2023-09-19T11:46:05;26.08;;;13.57;;
69847;SDS011;57143;55.940;37.496;2023-09-19T11:48:38;33.90;;;13.25;;
69847;SDS011;57143;55.940;37.496;2023-09-19T11:51:18;23.95;;;12.10;;
69847;SDS011;57143;55.940;37.496;2023-09-19T11:53:48;25.33;;;12.60;;
69847;SDS011;57143;55.940;37.496;2023-09-19T11:56:16;24.20;;;13.20;;
69847;SDS011;57143;55.940;37.496;2023-09-19T11:58:46;26.52;;;12.73;;
69847;SDS011;57143;55.940;37.496;2023-09-19T12:01:21;21.13;;;12.43;;
69847;SDS011;57143;55.940;37.496;2023-09-19T12:03:53;23.63;;;13.27;;
69847;SDS011;57143;55.940;37.496;2023-09-19T12:06:24;25.63;;;13.30;;
69847;SDS011;57143;55.940;37.496;2023-09-19T12:08:52;25.15;;;13.00;;
69847;SDS011;57143;55.940;37.496;2023-09-19T12:11:21;23.38;;;13.07;;
69847;SDS011;57143;55.940;37.496;2023-09-19T12:13:49;23.95;;;12.38;;
69847;SDS011;57143;55.940;37.496;2023-09-19T12:16:19;22.40;;;10.98;;
69847;SDS011;57143;55.940;37.496;2023-09-19T12:18:50;24.37;;;12.30;;
69847;SDS011;57143;55.940;37.496;2023-09-19T12:21:24;24.50;;;12.73;;
69847;SDS011;57143;55.940;37.496;2023-09-19T12:26:45;24.60;;;13.15;;
69847;SDS011;57143;55.940;37.496;2023-09-19T12:29:14;22.70;;;12.45;;
69847;SDS011;57143;55.940;37.496;2023-09-19T12:31:49;24.77;;;12.67;;
69847;SDS011;57143;55.940;37.496;2023-09-19T12:34:19;23.83;;;12.27;;
69847;SDS011;57143;55.940;37.496;2023-09-19T12:36:49;24.30;;;12.73;;
69847;SDS011;57143;55.940;37.496;2023-09-19T12:39:30;25.50;;;13.25;;
69847;SDS011;57143;55.940;37.496;2023-09-19T12:41:58;26.27;;;11.68;;
69847;SDS011;57143;55.940;37.496;2023-09-19T12:44:29;25.30;;;11.37;;
69847;SDS011;57143;55.940;37.496;2023-09-19T12:46:58;25.13;;;11.82;;
69847;SDS011;57143;55.940;37.496;2023-09-19T12:49:26;26.95;;;12.55;;
69847;SDS011;57143;55.940;37.496;2023-09-19T12:51:55;28.20;;;12.57;;
69847;SDS011;57143;55.940;37.496;2023-09-19T12:54:24;24.65;;;11.82;;
69847;SDS011;57143;55.940;37.496;2023-09-19T12:56:52;23.23;;;11.90;;
69847;SDS011;57143;55.940;37.496;2023-09-19T12:59:19;23.50;;;12.32;;
69847;SDS011;57143;55.940;37.496;2023-09-19T13:02:03;25.55;;;12.32;;
69847;SDS011;57143;55.940;37.496;2023-09-19T13:04:32;26.77;;;11.60;;
69847;SDS011;57143;55.940;37.496;2023-09-19T13:07:07;30.02;;;12.10;;
69847;SDS011;57143;55.940;37.496;2023-09-19T13:09:35;26.60;;;10.90;;
69847;SDS011;57143;55.940;37.496;2023-09-19T13:12:04;25.55;;;10.50;;
69847;SDS011;57143;55.940;37.496;2023-09-19T13:14:33;23.55;;;11.45;;
69847;SDS011;57143;55.940;37.496;2023-09-19T13:17:04;23.42;;;11.38;;
69847;SDS011;57143;55.940;37.496;2023-09-19T13:19:41;23.83;;;11.18;;
69847;SDS011;57143;55.940;37.496;2023-09-19T13:25:09;22.35;;;11.07;;
69847;SDS011;57143;55.940;37.496;2023-09-19T13:27:40;23.63;;;11.27;;
69847;SDS011;57143;55.940;37.496;2023-09-19T13:30:10;23.67;;;11.25;;
69847;SDS011;57143;55.940;37.496;2023-09-19T13:32:38;26.65;;;11.05;;
69847;SDS011;57143;55.940;37.496;2023-09-19T13:35:06;22.70;;;10.37;;
69847;SDS011;57143;55.940;37.496;2023-09-19T13:37:38;22.15;;;10.48;;
69847;SDS011;57143;55.940;37.496;2023-09-19T13:40:07;20.60;;;10.85;;
69847;SDS011;57143;55.940;37.496;2023-09-19T13:42:35;23.95;;;11.70;;
69847;SDS011;57143;55.940;37.496;2023-09-19T13:45:02;23.08;;;10.60;;
69847;SDS011;57143;55.940;37.496;2023-09-19T13:47:31;22.70;;;10.27;;
69847;SDS011;57143;55.940;37.496;2023-09-19T13:49:59;22.88;;;11.10;;
69847;SDS011;57143;55.940;37.496;2023-09-19T13:52:28;21.73;;;10.73;;
69847;SDS011;57143;55.940;37.496;2023-09-19T13:54:57;21.52;;;10.23;;
69847;SDS011;57143;55.940;37.496;2023-09-19T13:57:25;25.45;;;10.13;;
69847;SDS011;57143;55.940;37.496;2023-09-19T13:59:54;22.40;;;9.47;;
69847;SDS011;57143;55.940;37.496;2023-09-19T14:02:22;22.45;;;10.55;;
69847;SDS011;57143;55.940;37.496;2023-09-19T14:04:50;24.15;;;9.88;;
69847;SDS011;57143;55.940;37.496;2023-09-19T14:07:18;25.77;;;10.45;;
69847;SDS011;57143;55.940;37.496;2023-09-19T14:09:46;22.73;;;9.73;;
69847;SDS011;57143;55.940;37.496;2023-09-19T14:12:15;24.13;;;10.23;;
69847;SDS011;57143;55.940;37.496;2023-09-19T14:14:43;25.52;;;10.05;;
69847;SDS011;57143;55.940;37.496;2023-09-19T14:17:11;19.52;;;9.65;;
69847;SDS011;57143;55.940;37.496;2023-09-19T14:19:40;21.25;;;9.60;;
69847;SDS011;57143;55.940;37.496;2023-09-19T14:22:09;25.05;;;10.18;;
69847;SDS011;57143;55.940;37.496;2023-09-19T14:24:38;19.30;;;9.70;;
69847;SDS011;57143;55.940;37.496;2023-09-19T14:27:06;23.15;;;10.15;;
69847;SDS011;57143;55.940;37.496;2023-09-19T14:29:36;24.90;;;10.32;;
69847;SDS011;57143;55.940;37.496;2023-09-19T14:32:03;16.33;;;8.80;;
69847;SDS011;57143;55.940;37.496;2023-09-19T14:34:31;22.70;;;9.68;;
69847;SDS011;57143;55.940;37.496;2023-09-19T14:36:59;20.83;;;10.00;;
69847;SDS011;57143;55.940;37.496;2023-09-19T14:39:26;24.02;;;10.75;;
69847;SDS011;57143;55.940;37.496;2023-09-19T14:41:54;21.35;;;10.40;;
69847;SDS011;57143;55.940;37.496;2023-09-19T14:44:21;18.90;;;10.10;;
69847;SDS011;57143;55.940;37.496;2023-09-19T14:46:50;19.00;;;10.18;;
69847;SDS011;57143;55.940;37.496;2023-09-19T14:49:17;20.87;;;9.90;;
69847;SDS011;57143;55.940;37.496;2023-09-19T14:51:44;20.92;;;9.80;;
69847;SDS011;57143;55.940;37.496;2023-09-19T14:54:12;20.33;;;10.55;;
69847;SDS011;57143;55.940;37.496;2023-09-19T14:56:42;20.80;;;10.73;;
69847;SDS011;57143;55.940;37.496;2023-09-19T14:59:09;25.73;;;10.85;;
69847;SDS011;57143;55.940;37.496;2023-09-19T15:01:38;23.20;;;10.63;;
69847;SDS011;57143;55.940;37.496;2023-09-19T15:04:07;22.83;;;10.85;;
69847;SDS011;57143;55.940;37.496;2023-09-19T15:06:35;25.02;;;10.15;;
69847;SDS011;57143;55.940;37.496;2023-09-19T15:09:02;19.67;;;10.68;;
69847;SDS011;57143;55.940;37.496;2023-09-19T15:11:30;24.48;;;11.23;;
69847;SDS011;57143;55.940;37.496;2023-09-19T15:13:57;18.10;;;10.10;;